Time;durP1;ratioP1;P1;durP2;ratioP2;P2;SDS_P1;SDS_P2;PMS_P1;PMS_P2;Temp;Humidity;BMP_temperature;BMP_pressure;BME280_temperature;BME280_humidity;BME280_pressure;Samples;Min_cycle;Max_cycle;Signal;HPM_P1;HPM_P2
2022/06/20 00:01:06;;;;;;;;;30.25;27.00;;;;;21.95;100.00;100813.84;5094380;27;46090;-77
2022/06/20 00:03:44;;;;;;;;;31.25;26.75;;;;;21.88;100.00;100822.63;5098714;27;45263;-78
2022/06/20 00:06:15;;;;;;;;;31.25;28.25;;;;;21.89;100.00;100839.34;5065431;27;45353;-77
2022/06/20 00:08:41;;;;;;;;;25.75;23.00;;;;;21.77;100.00;100853.38;5043394;27;45341;-78
2022/06/20 00:11:14;;;;;;;;;27.50;26.50;;;;;21.77;100.00;100882.38;5086735;27;46129;-77
2022/06/20 00:13:43;;;;;;;;;27.50;24.50;;;;;21.74;100.00;100879.75;5078485;27;45501;-77
2022/06/20 00:16:14;;;;;;;;;29.00;27.50;;;;;21.75;100.00;100886.78;5058435;28;45797;-78
2022/06/20 00:18:40;;;;;;;;;27.00;25.75;;;;;21.75;100.00;100878.88;5076578;27;47055;-75
2022/06/20 00:21:11;;;;;;;;;26.75;26.00;;;;;21.71;100.00;100877.13;5083100;27;45419;-75
2022/06/20 00:23:37;;;;;;;;;25.25;23.00;;;;;21.69;100.00;100858.69;5079700;27;46026;-78
2022/06/20 00:26:03;;;;;;;;;27.25;25.50;;;;;21.77;100.00;100867.47;5098587;27;45200;-78
2022/06/20 00:28:28;;;;;;;;;27.25;23.00;;;;;21.68;100.00;100838.47;5075872;27;45341;-77
2022/06/20 00:30:54;;;;;;;;;24.25;22.00;;;;;21.69;100.00;100824.44;5084811;27;45259;-77
2022/06/20 00:33:19;;;;;;;;;27.00;23.75;;;;;21.69;100.00;100810.34;5098443;27;45467;-77
2022/06/20 00:35:45;;;;;;;;;29.00;26.50;;;;;21.72;100.00;100831.44;5097583;27;45394;-77
2022/06/20 00:38:22;;;;;;;;;27.50;24.75;;;;;21.72;100.00;100857.78;5105159;27;45341;-78
2022/06/20 00:40:53;;;;;;;;;28.25;24.50;;;;;21.63;100.00;100853.41;5086851;27;45567;-77
2022/06/20 00:43:33;;;;;;;;;28.00;25.75;;;;;21.65;100.00;100860.41;5099178;27;45315;-78
2022/06/20 00:46:03;;;;;;;;;24.75;24.00;;;;;21.64;100.00;100866.59;5098688;27;45434;-77
2022/06/20 00:48:48;;;;;;;;;26.25;24.25;;;;;21.61;100.00;100871.84;5099371;27;45376;-77
2022/06/20 00:51:35;;;;;;;;;24.75;23.00;;;;;21.57;100.00;100872.69;5098440;27;45985;-76
2022/06/20 00:54:36;;;;;;;;;27.00;24.75;;;;;21.44;100.00;100860.38;5098129;27;45860;-78
2022/06/20 00:57:17;;;;;;;;;27.25;25.00;;;;;21.38;100.00;100855.13;5053166;27;45546;-78
2022/06/20 00:59:49;;;;;;;;;26.50;24.50;;;;;21.33;100.00;100871.78;5078246;27;45339;-77
2022/06/20 01:02:23;;;;;;;;;28.50;25.25;;;;;21.36;100.00;100896.38;5077744;27;46608;-77
2022/06/20 01:04:57;;;;;;;;;24.75;23.75;;;;;21.33;100.00;100910.44;5077477;28;45894;-77
2022/06/20 01:07:35;;;;;;;;;31.50;27.25;;;;;21.33;100.00;100908.66;5077771;27;45322;-77
2022/06/20 01:10:04;;;;;;;;;24.25;23.00;;;;;21.36;100.00;100909.53;5059384;28;45437;-78
2022/06/20 01:12:37;;;;;;;;;23.50;22.50;;;;;21.31;100.00;100889.38;5077402;27;45608;-78
2022/06/20 01:15:16;;;;;;;;;25.25;24.25;;;;;21.34;100.00;100901.66;5059664;28;46003;-77
2022/06/20 01:17:42;;;;;;;;;25.50;21.25;;;;;21.27;100.00;100886.72;5077968;28;45284;-78
2022/06/20 01:20:20;;;;;;;;;25.25;23.25;;;;;21.33;100.00;100892.84;5077275;28;45569;-78
2022/06/20 01:22:50;;;;;;;;;25.75;23.00;;;;;21.36;100.00;100892.00;5065005;28;45576;-78
2022/06/20 01:25:53;;;;;;;;;23.25;23.00;;;;;21.37;100.00;100870.06;5084682;27;45744;-77
2022/06/20 01:28:28;;;;;;;;;27.25;24.00;;;;;21.40;100.00;100850.75;5083064;28;45262;-77
2022/06/20 01:30:55;;;;;;;;;25.25;23.25;;;;;21.44;100.00;100845.47;5077565;28;45910;-75
2022/06/20 01:33:22;;;;;;;;;25.50;23.50;;;;;21.37;100.00;100811.22;5077169;28;46181;-75
2022/06/20 01:38:35;;;;;;;;;25.25;23.50;;;;;21.50;100.00;100781.38;5077300;27;45489;-75
2022/06/20 01:43:47;;;;;;;;;23.25;20.75;;;;;21.55;100.00;100724.28;5076537;28;45311;-74
2022/06/20 01:46:14;;;;;;;;;28.00;24.00;;;;;21.53;100.00;100709.34;5077115;28;45935;-75
2022/06/20 01:48:51;;;;;;;;;23.25;21.50;;;;;21.52;100.00;100690.06;5077350;28;45296;-76
2022/06/20 01:51:25;;;;;;;;;25.00;21.75;;;;;21.44;100.00;100660.19;5077269;28;45321;-74
2022/06/20 01:53:54;;;;;;;;;29.00;25.75;;;;;21.43;100.00;100640.91;5076471;28;46197;-75
2022/06/20 01:56:22;;;;;;;;;25.50;23.00;;;;;21.33;100.00;100597.03;5076875;27;45833;-76
2022/06/20 01:58:58;;;;;;;;;27.75;24.25;;;;;21.33;100.00;100570.72;5076680;28;45472;-76
2022/06/20 02:01:25;;;;;;;;;26.25;23.00;;;;;21.22;100.00;100517.22;5059669;27;45504;-77
2022/06/20 02:03:50;;;;;;;;;21.25;21.00;;;;;21.26;100.00;100479.47;5077116;28;45389;-76
2022/06/20 02:06:18;;;;;;;;;23.25;22.25;;;;;21.25;100.00;100462.78;5084754;27;45342;-76
2022/06/20 02:08:49;;;;;;;;;19.75;17.50;;;;;21.24;100.00;100447.84;5081284;28;45300;-76
2022/06/20 02:11:34;;;;;;;;;18.50;18.50;;;;;21.23;100.00;100455.78;5058733;28;45375;-74
2022/06/20 02:14:23;;;;;;;;;23.50;19.50;;;;;21.20;100.00;100464.56;5076151;27;45344;-76
2022/06/20 02:16:56;;;;;;;;;21.25;19.75;;;;;21.17;100.00;100526.00;5076345;28;45884;-75
2022/06/20 02:19:31;;;;;;;;;25.50;22.00;;;;;21.13;100.00;100587.44;5076626;28;45287;-76
2022/06/20 02:22:02;;;;;;;;;30.00;25.25;;;;;21.10;100.00;100633.97;5076502;27;45282;-75
2022/06/20 02:24:34;;;;;;;;;22.75;20.75;;;;;21.05;100.00;100665.56;5076242;27;46245;-76
2022/06/20 02:27:02;;;;;;;;;19.50;19.50;;;;;20.95;100.00;100663.81;5076164;27;45367;-75
2022/06/20 02:29:29;;;;;;;;;21.25;18.00;;;;;20.94;100.00;100686.63;5058250;28;45348;-77
2022/06/20 02:32:10;;;;;;;;;18.50;17.50;;;;;20.87;100.00;100705.91;5076239;28;45374;-76
2022/06/20 02:34:36;;;;;;;;;22.00;17.25;;;;;20.88;100.00;100705.03;5076299;28;45773;-76
2022/06/20 02:37:09;;;;;;;;;17.50;17.50;;;;;20.87;100.00;100701.53;5075973;28;45321;-75
2022/06/20 02:39:39;;;;;;;;;23.00;20.50;;;;;20.90;100.00;100719.06;5076104;27;45442;-75
2022/06/20 02:42:11;;;;;;;;;21.00;18.00;;;;;20.92;100.00;100727.84;5076026;28;45649;-76
2022/06/20 02:44:40;;;;;;;;;24.00;19.75;;;;;20.91;100.00;100744.50;5078046;28;46309;-76
2022/06/20 02:47:09;;;;;;;;;23.50;22.50;;;;;20.94;100.00;100768.19;5082341;28;45335;-77
2022/06/20 02:49:36;;;;;;;;;18.00;17.50;;;;;20.89;100.00;100775.22;5079868;28;45359;-77
2022/06/20 02:52:06;;;;;;;;;20.50;19.50;;;;;20.89;100.00;100788.38;5081363;28;45401;-76
2022/06/20 02:54:36;;;;;;;;;20.75;18.25;;;;;20.83;100.00;100776.09;5077519;28;45989;-76
2022/06/20 02:57:10;;;;;;;;;22.00;20.00;;;;;20.82;100.00;100774.34;5079448;28;45788;-76
2022/06/20 02:59:43;;;;;;;;;22.25;19.50;;;;;20.83;100.00;100754.16;5079529;27;45312;-76
2022/06/20 03:02:11;;;;;;;;;19.75;19.25;;;;;20.84;100.00;100751.50;5080194;28;45373;-77
2022/06/20 03:04:41;;;;;;;;;17.75;16.50;;;;;20.86;100.00;100765.53;5079520;28;46102;-77
2022/06/20 03:07:14;;;;;;;;;20.75;19.25;;;;;20.91;100.00;100777.84;5079336;28;45799;-77
2022/06/20 03:09:43;;;;;;;;;20.50;19.25;;;;;20.83;100.00;100778.72;5079893;28;45329;-78
2022/06/20 03:12:10;;;;;;;;;23.00;21.00;;;;;20.89;100.00;100796.28;5080049;27;45286;-77
2022/06/20 03:14:47;;;;;;;;;21.75;20.75;;;;;20.90;100.00;100808.53;5060886;28;45828;-77
2022/06/20 03:17:17;;;;;;;;;17.00;16.50;;;;;20.82;100.00;100800.66;5079782;28;46001;-77
2022/06/20 03:19:47;;;;;;;;;21.25;20.00;;;;;20.78;100.00;100813.78;5079807;28;45236;-77
2022/06/20 03:22:17;;;;;;;;;21.75;20.00;;;;;20.75;100.00;100827.78;5079931;27;45344;-76
2022/06/20 03:24:45;;;;;;;;;20.75;20.00;;;;;20.71;100.00;100824.25;5061179;28;47666;-78
2022/06/20 03:27:15;;;;;;;;;21.75;20.25;;;;;20.69;100.00;100830.38;5079513;28;45419;-78
2022/06/20 03:29:46;;;;;;;;;20.75;17.50;;;;;20.70;100.00;100838.28;5079624;28;45234;-77
2022/06/20 03:32:12;;;;;;;;;16.25;16.25;;;;;20.69;100.00;100833.88;5080730;28;45363;-79
2022/06/20 03:34:37;;;;;;;;;19.75;19.75;;;;;20.67;100.00;100840.91;5085613;27;45420;-78
2022/06/20 03:37:06;;;;;;;;;22.25;20.00;;;;;20.69;100.00;100847.03;5082718;28;45484;-78
2022/06/20 03:39:34;;;;;;;;;26.50;23.00;;;;;20.64;100.00;100850.53;5081303;28;45317;-78
2022/06/20 03:42:01;;;;;;;;;21.25;20.00;;;;;20.66;100.00;100868.09;5079070;27;45300;-78
2022/06/20 03:44:32;;;;;;;;;25.75;22.50;;;;;20.65;100.00;100853.19;5078845;27;45363;-78
2022/06/20 03:47:23;;;;;;;;;25.25;24.00;;;;;20.66;100.00;100862.84;5078749;28;45370;-78
2022/06/20 03:50:07;;;;;;;;;26.50;23.75;;;;;20.61;100.00;100866.31;5078628;27;45409;-77
2022/06/20 03:53:02;;;;;;;;;22.50;20.75;;;;;20.55;100.00;100864.53;5079124;27;45478;-77
2022/06/20 03:55:42;;;;;;;;;23.00;21.75;;;;;20.44;100.00;100866.25;5078677;28;46271;-78
2022/06/20 03:58:22;;;;;;;;;25.00;23.25;;;;;20.35;100.00;100881.09;5078488;28;45296;-78
2022/06/20 04:01:00;;;;;;;;;26.00;23.25;;;;;20.30;100.00;100882.81;5078475;27;45311;-77
2022/06/20 04:03:34;;;;;;;;;24.00;21.75;;;;;20.30;100.00;100882.81;5078881;28;45282;-78
2022/06/20 04:06:17;;;;;;;;;27.75;24.00;;;;;20.27;100.00;100888.06;5076804;27;45376;-77
2022/06/20 04:11:53;;;;;;;;;22.25;19.00;;;;;20.15;100.00;100886.25;5082124;27;45318;-77
2022/06/20 04:14:25;;;;;;;;;27.50;22.75;;;;;20.15;100.00;100891.50;5084313;28;45331;-77
2022/06/20 04:16:57;;;;;;;;;26.00;20.00;;;;;20.10;100.00;100893.19;5084668;27;45315;-78
2022/06/20 04:19:35;;;;;;;;;21.00;21.00;;;;;20.12;100.00;100895.84;5081464;27;45864;-76
2022/06/20 04:22:17;;;;;;;;;22.00;20.00;;;;;20.12;100.00;100903.75;5078297;28;45241;-77
2022/06/20 04:24:53;;;;;;;;;24.75;21.50;;;;;20.05;100.00;100913.31;5060811;28;45437;-77
2022/06/20 04:27:44;;;;;;;;;22.00;17.50;;;;;20.06;100.00;100915.97;5077891;28;45720;-77
2022/06/20 04:30:31;;;;;;;;;25.00;22.50;;;;;20.02;100.00;100914.19;5064161;27;45267;-78
2022/06/20 04:33:07;;;;;;;;;22.00;19.50;;;;;20.09;100.00;100916.00;5059771;28;45519;-76
2022/06/20 04:35:40;;;;;;;;;22.50;20.75;;;;;20.09;100.00;100905.47;5078327;27;45285;-78
2022/06/20 04:38:16;;;;;;;;;18.00;17.50;;;;;20.18;100.00;100916.91;5077864;28;45387;-78
2022/06/20 04:40:56;;;;;;;;;21.00;20.25;;;;;20.24;100.00;100927.50;5078207;28;45370;-78
2022/06/20 04:43:33;;;;;;;;;19.50;18.00;;;;;20.25;100.00;100924.84;5078145;28;45342;-78
2022/06/20 04:46:14;;;;;;;;;20.50;20.00;;;;;20.29;100.00;100928.38;5077998;27;45212;-77
2022/06/20 04:48:40;;;;;;;;;27.00;21.00;;;;;20.23;100.00;100928.34;5078318;28;45394;-82
2022/06/20 04:51:09;;;;;;;;;21.00;18.25;;;;;20.22;100.00;100939.75;5077693;27;45421;-77
2022/06/20 04:53:40;;;;;;;;;24.75;21.50;;;;;20.20;100.00;100944.09;5093501;27;45365;-83
2022/06/20 04:56:10;;;;;;;;;20.75;19.75;;;;;20.21;100.00;100964.25;5104267;27;45425;-80
2022/06/20 04:58:42;;;;;;;;;23.00;20.75;;;;;20.23;100.00;100965.16;5104617;27;45335;-80
2022/06/20 05:01:08;;;;;;;;;21.50;18.25;;;;;20.28;100.00;100960.81;5099677;27;45751;-80
2022/06/20 05:03:41;;;;;;;;;23.25;21.75;;;;;20.31;100.00;100966.09;5098851;27;45323;-80
2022/06/20 05:06:17;;;;;;;;;19.75;18.50;;;;;20.37;100.00;100974.00;5099379;27;45227;-81
2022/06/20 05:08:52;;;;;;;;;19.50;18.25;;;;;20.42;100.00;100967.03;5099494;27;45268;-79
2022/06/20 05:11:24;;;;;;;;;21.00;17.00;;;;;20.48;100.00;100968.84;5102229;27;45506;-80
2022/06/20 05:14:05;;;;;;;;;19.75;17.75;;;;;20.50;100.00;100971.47;5105643;27;45463;-80
2022/06/20 05:16:37;;;;;;;;;18.50;17.25;;;;;20.50;100.00;100971.47;5090734;27;45477;-81
2022/06/20 05:19:12;;;;;;;;;15.00;14.50;;;;;20.50;100.00;100968.84;5058498;28;45742;-82
2022/06/20 05:21:43;;;;;;;;;16.00;16.00;;;;;20.51;100.00;100971.50;5074164;28;45876;-82
2022/06/20 05:24:20;;;;;;;;;23.25;17.75;;;;;20.51;100.00;100978.47;5059230;28;45801;-81
2022/06/20 05:26:50;;;;;;;;;18.75;17.75;;;;;20.40;100.00;100953.00;5057710;28;45369;-80
2022/06/20 05:29:28;;;;;;;;;12.00;12.00;;;;;20.45;100.00;100971.44;5059362;28;45511;-85
2022/06/20 05:31:57;;;;;;;;;17.00;17.00;;;;;20.47;100.00;100974.06;5060247;28;45804;-82
2022/06/20 05:34:55;;;;;;;;;14.50;13.50;;;;;20.47;100.00;100981.94;5079505;28;45232;-80
2022/06/20 05:37:47;;;;;;;;;21.00;16.50;;;;;20.46;100.00;100991.59;5087811;27;45389;-78
2022/06/20 05:40:26;;;;;;;;;20.25;14.00;;;;;20.39;100.00;100992.44;5095038;27;45316;-85
2022/06/20 05:42:51;;;;;;;;;13.25;13.25;;;;;20.29;100.00;100994.13;5083506;28;45824;-82
2022/06/20 05:45:21;;;;;;;;;18.25;14.75;;;;;20.28;100.00;101002.88;5085273;27;45525;-86
2022/06/20 05:47:55;;;;;;;;;17.00;14.50;;;;;20.30;100.00;101010.78;5097656;27;45544;-86
2022/06/20 05:50:34;;;;;;;;;15.00;14.25;;;;;20.37;100.00;101018.72;5053978;28;47193;-78
2022/06/20 05:53:05;;;;;;;;;12.25;12.25;;;;;20.39;100.00;101016.13;5069953;27;45850;-80
2022/06/20 05:55:44;;;;;;;;;15.00;12.50;;;;;20.42;100.00;101030.16;5082435;27;45331;-82
2022/06/20 05:58:18;;;;;;;;;12.75;10.00;;;;;20.40;100.00;101024.00;5078556;28;45504;-84
2022/06/20 06:00:46;;;;;;;;;11.75;10.25;;;;;20.35;100.00;101009.97;5077875;28;46829;-80
2022/06/20 06:03:34;;;;;;;;;10.00;8.75;;;;;20.44;100.00;101024.91;5080942;28;45709;-85
2022/06/20 06:06:10;;;;;;;;;12.00;9.50;;;;;20.46;100.00;101022.31;5078664;28;45456;-88
2022/06/20 06:08:48;;;;;;;;;12.50;10.50;;;;;20.47;100.00;101034.56;5078337;27;45253;-88
2022/06/20 06:11:29;;;;;;;;;9.25;9.25;;;;;20.47;100.00;101038.09;5086970;27;46139;-79
2022/06/20 06:14:16;;;;;;;;;11.00;9.75;;;;;20.52;100.00;101048.63;5078619;27;45888;-83
2022/06/20 06:17:01;;;;;;;;;10.25;10.25;;;;;20.44;100.00;101053.84;5077103;27;45303;-79
2022/06/20 06:19:43;;;;;;;;;11.00;10.00;;;;;20.40;100.00;101059.94;5082695;28;45429;-83
2022/06/20 06:22:12;;;;;;;;;17.00;12.00;;;;;20.47;100.00;101068.75;5081119;28;45324;-80
2022/06/20 06:24:42;;;;;;;;;10.25;8.75;;;;;20.42;100.00;101072.25;5081094;27;45802;-81
2022/06/20 06:27:15;;;;;;;;;8.25;8.25;;;;;20.41;100.00;101085.34;5080134;27;45339;-84
2022/06/20 06:29:47;;;;;;;;;9.50;8.75;;;;;20.39;100.00;101074.84;5077990;27;45489;-84
2022/06/20 06:32:23;;;;;;;;;16.00;12.00;;;;;20.38;100.00;101065.19;5076349;28;46047;-80
2022/06/20 06:35:04;;;;;;;;;9.25;9.25;;;;;20.46;100.00;101074.91;5076515;27;45357;-80
2022/06/20 06:37:57;;;;;;;;;10.75;10.25;;;;;20.35;100.00;101074.81;5076245;28;45439;-83
2022/06/20 06:40:46;;;;;;;;;12.50;10.00;;;;;20.40;100.00;101089.75;5076054;27;45345;-82
2022/06/20 06:43:26;;;;;;;;;12.00;10.00;;;;;20.40;100.00;101097.63;5079604;27;46300;-80
2022/06/20 06:46:00;;;;;;;;;11.25;8.75;;;;;20.40;100.00;101094.16;5074351;28;46362;-79
2022/06/20 06:49:12;;;;;;;;;9.00;8.00;;;;;20.39;100.00;101095.88;5076379;27;45393;-81
2022/06/20 06:51:51;;;;;;;;;13.00;11.00;;;;;20.44;100.00;101089.78;5018941;28;45248;-83
2022/06/20 06:54:43;;;;;;;;;11.00;10.75;;;;;20.49;100.00;101081.06;5056371;28;46224;-84
2022/06/20 06:57:16;;;;;;;;;9.25;9.25;;;;;20.54;100.00;101089.84;5024748;28;45428;-83
2022/06/20 06:59:56;;;;;;;;;11.00;9.25;;;;;20.52;100.00;101104.75;5062878;28;45445;-83
2022/06/20 07:02:25;;;;;;;;;14.50;11.25;;;;;20.54;100.00;101115.28;5043033;28;45497;-82
2022/06/20 07:05:04;;;;;;;;;7.75;7.75;;;;;20.55;100.00;101114.44;5061723;28;45940;-81
2022/06/20 07:07:45;;;;;;;;;12.00;10.50;;;;;20.55;100.00;101128.44;5080156;27;45340;-82
2022/06/20 07:10:21;;;;;;;;;13.50;12.25;;;;;20.49;100.00;101117.00;5076135;27;45344;-83
2022/06/20 07:12:51;;;;;;;;;10.00;8.50;;;;;20.50;100.00;101130.19;5080432;27;45518;-79
2022/06/20 07:15:19;;;;;;;;;16.75;12.25;;;;;20.50;100.00;101134.53;5088911;27;46416;-84
2022/06/20 07:18:06;;;;;;;;;6.25;5.50;;;;;20.46;100.00;101143.28;5086986;27;46303;-79
2022/06/20 07:20:42;;;;;;;;;14.75;13.00;;;;;20.41;100.00;101137.97;5070192;27;45457;-82
2022/06/20 07:23:18;;;;;;;;;15.00;13.25;;;;;20.27;100.00;101124.69;5061391;27;45550;-81
2022/06/20 07:25:49;;;;;;;;;13.50;13.50;;;;;20.29;100.00;101136.09;5072592;27;45425;-79
2022/06/20 07:28:48;;;;;;;;;12.25;10.75;;;;;20.28;100.00;101138.72;5094070;27;45875;-79
2022/06/20 07:31:50;;;;;;;;;15.00;12.25;;;;;20.21;100.00;101153.56;5085363;27;45461;-79
2022/06/20 07:34:22;;;;;;;;;10.50;10.50;;;;;20.14;100.00;101159.63;5076086;28;45365;-80
2022/06/20 07:36:56;;;;;;;;;13.50;12.50;;;;;20.08;100.00;101169.19;5080403;28;46022;-78
2022/06/20 07:39:33;;;;;;;;;13.75;13.00;;;;;20.09;100.00;101162.19;5064270;27;45464;-80
2022/06/20 07:42:07;;;;;;;;;11.25;11.25;;;;;20.08;100.00;101168.31;5106887;27;45415;-81
2022/06/20 07:44:49;;;;;;;;;19.25;16.25;;;;;20.00;100.00;101170.84;5081486;27;45460;-81
2022/06/20 07:47:20;;;;;;;;;21.50;17.50;;;;;19.85;100.00;101173.25;5064119;27;46607;-79
2022/06/20 07:49:53;;;;;;;;;17.00;16.00;;;;;19.81;100.00;101169.72;5099214;27;45187;-79
2022/06/20 07:52:28;;;;;;;;;18.25;15.00;;;;;19.78;100.00;101172.28;5099565;27;45307;-79
2022/06/20 07:54:59;;;;;;;;;15.75;14.25;;;;;19.75;100.00;101169.66;5099485;27;45346;-78
2022/06/20 07:57:32;;;;;;;;;18.50;15.50;;;;;19.73;100.00;101171.38;5098931;27;45666;-79
2022/06/20 08:00:13;;;;;;;;;14.25;13.75;;;;;19.67;100.00;101171.28;5083979;27;45219;-84
2022/06/20 08:02:46;;;;;;;;;19.00;16.75;;;;;19.71;100.00;101173.97;5079887;28;45844;-79
2022/06/20 08:05:18;;;;;;;;;15.25;12.00;;;;;19.70;100.00;101176.56;5079045;28;45332;-81
2022/06/20 08:07:58;;;;;;;;;15.75;13.25;;;;;19.78;100.00;101178.44;5080352;27;46494;-79
2022/06/20 08:10:42;;;;;;;;;15.50;13.25;;;;;19.87;100.00;101184.72;5075873;27;45909;-80
2022/06/20 08:13:21;;;;;;;;;16.50;13.00;;;;;19.90;100.00;101177.75;5098592;27;45494;-80
2022/06/20 08:15:53;;;;;;;;;15.00;12.50;;;;;19.97;100.00;101183.09;5076348;27;45306;-81
2022/06/20 08:18:22;;;;;;;;;12.50;9.50;;;;;19.95;100.00;101172.53;5090465;27;45507;-81
2022/06/20 08:20:56;;;;;;;;;15.25;13.00;;;;;20.10;100.00;101184.97;5095192;27;45342;-81
2022/06/20 08:23:38;;;;;;;;;17.00;14.00;;;;;20.12;100.00;101185.88;5080355;27;45310;-81
2022/06/20 08:26:12;;;;;;;;;17.00;14.75;;;;;20.23;100.00;101184.25;5066350;28;45817;-80
2022/06/20 08:28:59;;;;;;;;;13.75;13.75;;;;;20.29;100.00;101185.19;5063180;28;45346;-82
2022/06/20 08:31:38;;;;;;;;;14.50;13.25;;;;;20.34;100.00;101189.63;5088878;27;45922;-79
2022/06/20 08:34:14;;;;;;;;;12.50;12.50;;;;;20.38;100.00;101182.66;5086392;27;45354;-80
2022/06/20 08:36:56;;;;;;;;;13.00;12.50;;;;;20.46;100.00;101173.09;5079079;28;45311;-82
2022/06/20 08:39:39;;;;;;;;;14.50;12.25;;;;;20.49;100.00;101183.66;5078229;27;46296;-83
2022/06/20 08:42:44;;;;;;;;;16.75;15.75;;;;;20.43;99.77;101173.03;5080038;27;45358;-82
2022/06/20 08:45:33;;;;;;;;;16.75;14.25;;;;;20.45;99.28;101178.34;5087794;27;45421;-81
2022/06/20 08:48:38;;;;;;;;;15.50;13.25;;;;;20.38;100.00;101180.03;5057835;28;45342;-79
2022/06/20 08:51:40;;;;;;;;;16.25;14.25;;;;;20.43;99.34;101186.19;5057081;28;45279;-81
2022/06/20 08:54:42;;;;;;;;;14.25;13.75;;;;;20.39;100.00;101197.56;5057227;28;45341;-80
2022/06/20 08:57:08;;;;;;;;;14.75;14.00;;;;;20.34;100.00;101196.63;5062530;28;45322;-81
2022/06/20 08:59:39;;;;;;;;;16.00;15.75;;;;;20.31;100.00;101200.13;5077521;27;45633;-81
2022/06/20 09:02:45;;;;;;;;;13.50;12.50;;;;;20.30;100.00;101210.63;5079291;27;45718;-81
2022/06/20 09:05:42;;;;;;;;;16.75;14.00;;;;;20.29;100.00;101199.22;5058845;28;45936;-82
2022/06/20 09:08:33;;;;;;;;;14.25;14.00;;;;;20.30;100.00;101200.97;5077136;27;45377;-82
2022/06/20 09:11:23;;;;;;;;;17.25;14.50;;;;;20.32;100.00;101208.88;5085257;28;45490;-81
2022/06/20 09:14:11;;;;;;;;;13.25;12.00;;;;;20.30;100.00;101223.78;5084205;28;45858;-80
2022/06/20 09:17:01;;;;;;;;;14.50;13.75;;;;;20.33;100.00;101229.03;5090377;27;45177;-82
2022/06/20 09:19:44;;;;;;;;;19.75;14.25;;;;;20.37;100.00;101228.22;5080556;27;45366;-82
2022/06/20 09:22:16;;;;;;;;;15.75;14.00;;;;;20.34;100.00;101226.44;5080222;27;45280;-82
2022/06/20 09:25:06;;;;;;;;;17.00;13.25;;;;;20.35;99.95;101228.22;5098524;27;45371;-81
2022/06/20 09:27:44;;;;;;;;;18.50;16.25;;;;;20.41;99.47;101228.28;5077404;27;45856;-82
2022/06/20 09:30:22;;;;;;;;;13.50;11.75;;;;;20.42;100.00;101216.88;5057623;28;45343;-82
2022/06/20 09:33:03;;;;;;;;;21.50;16.75;;;;;20.58;99.30;101230.19;5041512;27;45459;-82
2022/06/20 09:35:54;;;;;;;;;16.25;13.00;;;;;20.70;98.96;101221.53;5098227;27;46203;-82
2022/06/20 09:38:38;;;;;;;;;16.75;14.00;;;;;20.81;97.77;101234.81;5098899;27;45486;-81
2022/06/20 09:41:11;;;;;;;;;17.75;14.25;;;;;20.86;97.72;101234.00;5100719;27;45421;-81
2022/06/20 09:44:00;;;;;;;;;14.00;11.75;;;;;20.97;96.10;101244.63;5097975;27;45235;-82
2022/06/20 09:46:50;;;;;;;;;15.25;14.00;;;;;21.01;95.33;101248.16;5097958;27;45418;-83
2022/06/20 09:49:40;;;;;;;;;16.50;15.25;;;;;21.07;94.50;101247.34;5074221;27;45755;-81
2022/06/20 09:52:09;;;;;;;;;14.75;12.50;;;;;21.08;94.56;101249.09;5089425;27;45529;-82
2022/06/20 09:54:59;;;;;;;;;15.75;15.00;;;;;21.18;94.51;101248.31;5089452;27;45572;-82
2022/06/20 09:57:43;;;;;;;;;14.00;13.50;;;;;21.20;92.63;101241.31;5089627;28;45317;-81
2022/06/20 10:00:09;;;;;;;;;11.00;10.00;;;;;21.29;92.35;101254.53;5099047;28;45245;-83
2022/06/20 10:03:01;;;;;;;;;17.25;13.25;;;;;21.36;91.32;101259.84;5085310;28;45467;-85
2022/06/20 10:05:42;;;;;;;;;13.50;12.25;;;;;21.35;90.76;101253.72;5081534;27;45336;-84
2022/06/20 10:08:19;;;;;;;;;14.25;13.25;;;;;21.36;90.60;101259.84;5075260;27;45528;-83
2022/06/20 10:10:53;;;;;;;;;14.00;11.75;;;;;21.37;90.80;101249.34;5078968;28;45816;-83
2022/06/20 10:13:33;;;;;;;;;16.75;13.50;;;;;21.54;89.52;101257.38;5080168;27;45391;-84
2022/06/20 10:16:10;;;;;;;;;12.75;11.75;;;;;21.64;88.98;101256.56;5081201;28;45164;-83
2022/06/20 10:18:46;;;;;;;;;13.00;13.00;;;;;21.83;88.74;101261.03;5079762;28;45304;-85
2022/06/20 10:21:44;;;;;;;;;12.25;12.25;;;;;22.08;86.74;101251.53;5077249;27;45753;-85
2022/06/20 10:24:15;;;;;;;;;13.25;11.00;;;;;22.26;85.91;101248.94;5079757;27;45520;-85
2022/06/20 10:27:05;;;;;;;;;15.25;12.25;;;;;22.45;83.01;101246.38;5088496;27;45457;-82
2022/06/20 10:30:01;;;;;;;;;10.25;9.75;;;;;22.59;82.96;101251.69;5081170;28;46010;-80
2022/06/20 10:32:42;;;;;;;;;13.50;12.75;;;;;22.67;82.22;101257.00;5081306;28;45236;-88
2022/06/20 10:35:22;;;;;;;;;9.50;9.00;;;;;22.70;82.46;101254.38;5095072;27;45386;-81
2022/06/20 10:38:03;;;;;;;;;13.00;11.75;;;;;22.69;81.66;101265.78;5109634;27;45191;-85
2022/06/20 10:40:41;;;;;;;;;12.25;11.50;;;;;22.78;81.37;101257.03;5108614;27;45473;-87
2022/06/20 10:43:11;;;;;;;;;15.75;13.00;;;;;22.84;80.29;101262.28;5100475;27;45725;-87
2022/06/20 10:46:01;;;;;;;;;11.50;11.00;;;;;22.86;80.20;101261.41;5092470;27;45440;-89
2022/06/20 10:48:46;;;;;;;;;12.25;10.25;;;;;22.88;79.73;101251.72;5108590;27;45242;-87
2022/06/20 10:51:16;;;;;;;;;11.25;10.50;;;;;22.90;79.09;101249.09;5084570;27;47315;-90
2022/06/20 10:53:59;;;;;;;;;9.00;8.50;;;;;22.95;79.16;101259.66;5108400;27;45424;-90
2022/06/20 10:56:43;;;;;;;;;12.00;11.00;;;;;22.92;78.52;101257.88;5108620;27;45187;-81
2022/06/20 10:59:30;;;;;;;;;11.00;10.50;;;;;23.00;78.31;101261.41;5079678;28;45433;-84
2022/06/20 11:02:19;;;;;;;;;11.00;9.25;;;;;23.06;77.78;101262.31;5075879;27;46699;-84
2022/06/20 11:05:21;;;;;;;;;12.00;11.00;;;;;23.07;77.10;101267.56;5047463;27;45439;-86
2022/06/20 11:07:58;;;;;;;;;11.50;10.50;;;;;23.09;77.72;101272.88;5085657;27;45307;-87
2022/06/20 11:10:27;;;;;;;;;14.50;11.25;;;;;23.17;77.37;101274.63;5062964;28;45826;-80
2022/06/20 11:13:11;;;;;;;;;12.00;8.25;;;;;23.28;76.89;101272.03;5084978;27;45433;-82
2022/06/20 11:15:54;;;;;;;;;11.75;11.00;;;;;23.33;76.69;101272.00;5080681;28;45215;-81
2022/06/20 11:18:37;;;;;;;;;17.00;12.25;;;;;23.48;74.98;101272.00;5101398;27;45493;-80
2022/06/20 11:21:26;;;;;;;;;12.25;10.00;;;;;23.56;74.70;101269.34;5097332;27;45674;-85
2022/06/20 11:24:12;;;;;;;;;10.25;8.75;;;;;23.67;74.18;101265.78;5090256;27;45351;-84
2022/06/20 11:26:53;;;;;;;;;10.00;10.00;;;;;23.78;74.99;101256.06;5094898;28;45325;-80
2022/06/20 11:29:51;;;;;;;;;13.00;11.75;;;;;23.94;73.39;101270.13;5113020;27;45421;-82
2022/06/20 11:32:47;;;;;;;;;12.00;11.00;;;;;24.04;73.39;101274.50;5075771;28;45532;-85
2022/06/20 11:35:40;;;;;;;;;13.00;9.75;;;;;24.03;72.89;101267.47;5091941;28;45410;-85
2022/06/20 11:38:37;;;;;;;;;7.75;7.75;;;;;24.03;73.25;101270.09;5089024;28;45440;-83
2022/06/20 11:41:15;;;;;;;;;11.00;10.00;;;;;24.02;72.27;101276.31;5072605;28;45393;-86
2022/06/20 11:44:08;;;;;;;;;11.25;10.00;;;;;24.06;72.76;101272.75;5085334;27;45300;-86
2022/06/20 11:46:52;;;;;;;;;8.75;8.00;;;;;24.10;71.52;101277.16;5086604;27;45529;-80
2022/06/20 11:49:40;;;;;;;;;12.50;11.50;;;;;24.21;70.80;101274.44;5087019;28;45698;-82
2022/06/20 11:52:32;;;;;;;;;11.50;11.00;;;;;24.23;72.21;101270.03;5086965;27;45346;-80
2022/06/20 11:55:23;;;;;;;;;10.25;10.00;;;;;24.32;72.08;101274.41;5055628;28;45276;-79
2022/06/20 11:58:04;;;;;;;;;9.75;7.75;;;;;24.40;71.05;101274.38;5071010;27;46134;-79
2022/06/20 12:00:56;;;;;;;;;12.25;9.50;;;;;24.50;71.03;101272.53;5086553;28;45181;-82